createdAt,value
2018-10-03T00:00:55.142Z,78.30
2018-10-03T00:03:28.967Z,78.30
2018-10-03T00:06:02.948Z,78.30
2018-10-03T00:08:37.240Z,78.30
2018-10-03T00:11:11.119Z,78.30
2018-10-03T00:18:40.943Z,78.20
2018-10-03T00:21:14.587Z,77.40
2018-10-03T00:23:48.351Z,77.60
2018-10-03T00:26:22.011Z,77.40
2018-10-03T00:28:55.685Z,77.50
2018-10-03T00:31:29.772Z,77.40
2018-10-03T00:34:03.077Z,77.10
2018-10-03T00:36:37.273Z,77.00
2018-10-03T00:39:13.046Z,76.80
2018-10-03T00:41:47.712Z,76.70
2018-10-03T00:44:21.102Z,76.20
2018-10-03T00:46:56.061Z,76.00
2018-10-03T00:49:29.799Z,76.10
2018-10-03T00:52:03.055Z,76.00
2018-10-03T00:54:36.933Z,75.20
2018-10-03T00:57:10.738Z,74.60
2018-10-03T00:59:44.485Z,74.70
2018-10-03T01:02:18.594Z,74.40
2018-10-03T01:04:52.397Z,74.30
2018-10-03T01:07:25.381Z,74.10
2018-10-03T01:09:59.116Z,73.80
2018-10-03T01:17:33.987Z,73.40
2018-10-03T01:20:09.440Z,72.80
2018-10-03T01:22:42.704Z,72.90
2018-10-03T01:25:16.840Z,72.90
2018-10-03T01:27:50.404Z,72.80
2018-10-03T01:30:25.201Z,72.40
2018-10-03T01:32:58.998Z,72.50
2018-10-03T01:35:32.642Z,71.70
2018-10-03T01:38:06.397Z,71.20
2018-10-03T01:40:41.210Z,71.20
2018-10-03T01:43:14.902Z,71.40
2018-10-03T01:45:49.215Z,71.30
2018-10-03T01:48:22.725Z,70.70
2018-10-03T01:50:56.777Z,69.80
2018-10-03T01:53:31.049Z,69.90
2018-10-03T01:56:04.888Z,69.70
2018-10-03T01:58:38.872Z,68.90
2018-10-03T02:01:12.683Z,68.80
2018-10-03T02:03:46.539Z,69.00
2018-10-03T02:06:21.043Z,68.40
2018-10-03T02:08:55.028Z,68.80
2018-10-03T02:11:28.437Z,68.30
2018-10-03T02:14:02.014Z,68.60
2018-10-03T02:21:38.492Z,67.20
2018-10-03T02:24:11.866Z,67.80
2018-10-03T02:26:45.572Z,67.50
2018-10-03T02:29:19.415Z,67.20
2018-10-03T02:31:53.101Z,66.90
2018-10-03T02:39:21.692Z,66.90
2018-10-03T02:41:56.181Z,66.00
2018-10-03T02:44:29.962Z,66.30
2018-10-03T02:47:04.248Z,65.60
2018-10-03T02:49:37.648Z,66.00
2018-10-03T02:52:11.097Z,65.70
2018-10-03T02:54:44.474Z,65.80
2018-10-03T02:57:18.680Z,64.70
2018-10-03T02:59:53.466Z,65.20
2018-10-03T03:02:27.258Z,64.80
2018-10-03T03:05:01.164Z,64.70
2018-10-03T03:07:35.636Z,63.30
2018-10-03T03:10:09.843Z,63.80
2018-10-03T03:12:43.630Z,64.20
2018-10-03T03:15:17.644Z,62.40
2018-10-03T03:17:51.330Z,62.30
2018-10-03T03:20:25.879Z,62.10
2018-10-03T03:23:02.779Z,62.60
2018-10-03T03:25:36.711Z,63.20
2018-10-03T03:28:11.694Z,62.00
2018-10-03T03:30:45.548Z,61.80
2018-10-03T03:33:20.024Z,60.80
2018-10-03T03:35:53.845Z,61.40
2018-10-03T03:38:27.642Z,61.90
2018-10-03T03:41:01.108Z,61.00
2018-10-03T03:43:35.180Z,60.80
2018-10-03T03:46:08.825Z,61.10
2018-10-03T03:48:42.668Z,61.20
2018-10-03T03:51:16.331Z,61.40
2018-10-03T03:53:50.307Z,61.10
2018-10-03T03:56:23.688Z,60.70
2018-10-03T03:58:57.248Z,60.50
2018-10-03T04:01:31.583Z,60.50
2018-10-03T04:04:05.129Z,60.90
2018-10-03T04:06:40.039Z,60.60
2018-10-03T04:09:14.168Z,61.10
2018-10-03T04:11:47.847Z,60.60
2018-10-03T04:14:21.453Z,60.20
2018-10-03T04:16:55.419Z,60.20
2018-10-03T04:19:28.615Z,59.30
2018-10-03T04:22:02.980Z,59.00
2018-10-03T04:24:38.336Z,59.20
2018-10-03T04:27:13.064Z,59.00
2018-10-03T04:29:46.792Z,58.90
2018-10-03T04:32:20.775Z,58.90
2018-10-03T04:34:54.596Z,59.00
2018-10-03T04:37:28.987Z,58.10
2018-10-03T04:40:02.393Z,58.40
2018-10-03T04:42:35.778Z,58.90
2018-10-03T04:45:09.989Z,58.70
2018-10-03T04:47:43.789Z,58.90
2018-10-03T04:50:17.773Z,58.70
2018-10-03T04:52:52.923Z,58.80
2018-10-03T04:55:26.753Z,59.20
2018-10-03T04:58:00.740Z,59.50
2018-10-03T05:00:34.853Z,60.20
2018-10-03T05:03:08.670Z,59.30
2018-10-03T05:05:42.375Z,58.40
2018-10-03T05:08:16.305Z,58.20
2018-10-03T05:10:50.264Z,57.50
2018-10-03T05:13:24.166Z,57.50
2018-10-03T05:15:58.290Z,57.00
2018-10-03T05:18:32.112Z,57.10
2018-10-03T05:21:05.845Z,57.30
2018-10-03T05:23:39.498Z,57.40
2018-10-03T05:26:15.032Z,57.20
2018-10-03T05:28:48.355Z,57.30
2018-10-03T05:31:21.821Z,57.20
2018-10-03T05:33:55.932Z,57.40
2018-10-03T05:36:30.410Z,58.00
2018-10-03T05:39:04.295Z,57.80
2018-10-03T05:41:38.105Z,57.40
2018-10-03T05:44:12.459Z,57.90
2018-10-03T05:46:45.744Z,57.70
2018-10-03T05:49:19.271Z,57.50
2018-10-03T05:51:53.825Z,57.60
2018-10-03T05:54:28.749Z,57.60
2018-10-03T05:57:02.580Z,57.60
2018-10-03T05:59:36.770Z,57.90
2018-10-03T06:02:10.403Z,58.20
2018-10-03T06:04:58.874Z,57.90
2018-10-03T06:07:32.402Z,57.30
2018-10-03T06:10:05.964Z,57.40
2018-10-03T06:12:39.789Z,57.50
2018-10-03T06:15:13.141Z,57.90
2018-10-03T06:17:46.854Z,57.40
2018-10-03T06:20:20.829Z,57.20
2018-10-03T06:22:54.496Z,57.40
2018-10-03T06:25:28.118Z,57.10
2018-10-03T06:28:03.318Z,57.80
2018-10-03T06:30:36.764Z,58.20
2018-10-03T06:33:10.869Z,59.00
2018-10-03T06:35:44.333Z,58.90
2018-10-03T06:38:18.156Z,59.00
2018-10-03T06:40:52.680Z,59.30
2018-10-03T06:43:26.157Z,59.00
2018-10-03T06:45:59.837Z,59.00
2018-10-03T06:48:33.936Z,59.00
2018-10-03T06:51:07.693Z,59.10
2018-10-03T06:53:41.239Z,59.20
2018-10-03T06:56:15.479Z,59.20
2018-10-03T06:58:49.243Z,58.80
2018-10-03T07:01:24.295Z,58.10
2018-10-03T07:03:58.009Z,58.60
2018-10-03T07:06:32.021Z,58.20
2018-10-03T07:09:06.791Z,58.30
2018-10-03T07:11:40.630Z,58.60
2018-10-03T07:14:15.414Z,58.70
2018-10-03T07:16:49.031Z,58.90
2018-10-03T07:19:22.876Z,59.00
2018-10-03T07:21:56.453Z,59.00
2018-10-03T07:24:30.490Z,58.90
2018-10-03T07:27:04.400Z,58.90
2018-10-03T07:29:40.692Z,58.90
2018-10-03T07:32:14.734Z,59.00
2018-10-03T07:34:48.317Z,59.20
2018-10-03T07:37:22.176Z,59.40
2018-10-03T07:39:55.998Z,59.60
2018-10-03T07:42:29.886Z,59.40
2018-10-03T07:45:03.757Z,59.80
2018-10-03T07:47:38.113Z,59.90
2018-10-03T07:50:11.929Z,60.10
2018-10-03T07:52:45.284Z,60.20
2018-10-03T07:55:19.103Z,60.20
2018-10-03T07:57:52.748Z,60.30
2018-10-03T08:00:31.737Z,60.40
2018-10-03T08:05:10.695Z,60.30
2018-10-03T08:07:44.561Z,60.40
2018-10-03T08:10:18.503Z,61.60
2018-10-03T08:12:52.137Z,62.00
2018-10-03T08:15:26.596Z,62.80
2018-10-03T08:18:00.612Z,62.60
2018-10-03T08:20:34.285Z,62.20
2018-10-03T08:23:07.416Z,61.30
2018-10-03T08:25:41.262Z,62.10
2018-10-03T08:28:15.224Z,61.40
2018-10-03T08:30:50.458Z,61.10
2018-10-03T08:33:24.308Z,61.40
2018-10-03T08:35:58.141Z,62.40
2018-10-03T08:38:31.850Z,63.00
2018-10-03T08:41:09.437Z,63.30
2018-10-03T08:43:43.552Z,63.70
2018-10-03T08:46:17.259Z,64.70
2018-10-03T08:48:51.171Z,65.30
2018-10-03T08:51:25.897Z,65.60
2018-10-03T08:54:01.430Z,66.20
2018-10-03T08:56:35.477Z,66.20
2018-10-03T08:59:09.474Z,66.50
2018-10-03T09:01:43.895Z,67.00
2018-10-03T09:04:17.800Z,67.20
2018-10-03T09:06:52.004Z,67.70
2018-10-03T09:09:25.425Z,67.90
2018-10-03T09:11:59.722Z,67.80
2018-10-03T09:14:33.593Z,68.00
2018-10-03T09:17:09.070Z,68.10
2018-10-03T09:19:42.966Z,68.30
2018-10-03T09:22:16.874Z,68.20
2018-10-03T09:24:50.618Z,68.30
2018-10-03T09:27:24.548Z,68.30
2018-10-03T09:29:58.284Z,68.20
2018-10-03T09:32:33.302Z,68.30
2018-10-03T09:35:07.897Z,68.20
2018-10-03T09:37:41.868Z,68.30
2018-10-03T09:40:15.311Z,68.30
2018-10-03T09:42:50.102Z,68.30
2018-10-03T09:45:23.749Z,68.60
2018-10-03T09:47:57.768Z,68.80
2018-10-03T09:50:31.398Z,68.80
2018-10-03T09:53:05.127Z,68.60
2018-10-03T09:55:38.957Z,68.70
2018-10-03T09:58:12.539Z,68.40
2018-10-03T10:00:50.764Z,68.20
2018-10-03T10:03:24.426Z,67.90
2018-10-03T10:05:59.112Z,67.90
2018-10-03T10:08:33.737Z,67.80
2018-10-03T10:11:07.705Z,67.80
2018-10-03T10:13:41.665Z,67.80
2018-10-03T10:16:15.502Z,68.10
2018-10-03T10:18:49.317Z,68.30
2018-10-03T10:21:23.109Z,68.70
2018-10-03T10:23:57.642Z,68.80
2018-10-03T10:26:31.375Z,68.80
2018-10-03T10:29:05.097Z,68.80
2018-10-03T10:31:39.903Z,69.00
2018-10-03T10:34:14.386Z,69.00
2018-10-03T10:36:48.687Z,69.30
2018-10-03T10:39:22.562Z,69.30
2018-10-03T10:41:56.397Z,69.30
2018-10-03T10:44:30.545Z,69.30
2018-10-03T10:47:03.923Z,69.40
2018-10-03T10:49:38.060Z,69.50
2018-10-03T10:52:11.578Z,69.40
2018-10-03T10:54:45.376Z,69.20
2018-10-03T10:57:19.237Z,69.00
2018-10-03T10:59:53.006Z,69.10
2018-10-03T11:02:27.085Z,69.40
2018-10-03T11:05:00.818Z,69.50
2018-10-03T11:07:34.956Z,69.60
2018-10-03T11:10:09.530Z,69.40
2018-10-03T11:12:43.653Z,70.10
2018-10-03T11:15:17.161Z,69.50
2018-10-03T11:17:51.454Z,69.50
2018-10-03T11:20:25.040Z,69.50
2018-10-03T11:22:58.774Z,69.50
2018-10-03T11:25:32.763Z,69.70
2018-10-03T11:28:06.703Z,69.80
2018-10-03T11:30:40.311Z,69.90
2018-10-03T11:33:14.024Z,69.90
2018-10-03T11:35:48.931Z,70.10
2018-10-03T11:38:22.526Z,70.20
2018-10-03T11:40:56.705Z,70.30
2018-10-03T11:43:30.478Z,70.50
2018-10-03T11:46:04.498Z,70.40
2018-10-03T11:48:38.077Z,70.40
2018-10-03T11:51:10.871Z,70.30
2018-10-03T11:53:44.629Z,70.20
2018-10-03T11:56:18.175Z,70.20
2018-10-03T11:58:52.480Z,70.10
2018-10-03T12:01:26.177Z,70.10
2018-10-03T12:04:01.149Z,70.20
2018-10-03T12:06:35.237Z,69.40
2018-10-03T12:09:11.899Z,69.20
2018-10-03T12:11:45.710Z,69.20
2018-10-03T12:14:19.398Z,69.20
2018-10-03T12:16:53.065Z,69.30
2018-10-03T12:19:26.874Z,69.30
2018-10-03T12:22:00.376Z,69.30
2018-10-03T12:24:34.781Z,69.60
2018-10-03T12:27:09.191Z,69.60
2018-10-03T12:29:42.810Z,69.60
2018-10-03T12:32:16.729Z,69.70
2018-10-03T12:34:50.723Z,70.00
2018-10-03T12:37:26.597Z,70.00
2018-10-03T12:40:00.214Z,69.90
2018-10-03T12:42:34.258Z,70.00
2018-10-03T12:45:07.810Z,70.10
2018-10-03T12:47:41.326Z,70.30
2018-10-03T12:50:16.472Z,70.50
2018-10-03T12:52:50.051Z,70.70
2018-10-03T12:55:24.031Z,70.90
2018-10-03T12:57:57.729Z,71.00
2018-10-03T13:00:33.117Z,71.00
2018-10-03T13:03:06.882Z,71.30
2018-10-03T13:05:41.092Z,71.40
2018-10-03T13:08:14.639Z,71.50
2018-10-03T13:10:48.206Z,71.10
2018-10-03T13:13:22.265Z,71.60
2018-10-03T13:15:57.287Z,72.10
2018-10-03T13:18:31.371Z,71.50
2018-10-03T13:21:05.295Z,71.50
2018-10-03T13:23:38.988Z,71.60
2018-10-03T13:26:12.771Z,71.60
2018-10-03T13:28:46.013Z,71.40
2018-10-03T13:31:20.201Z,71.40
2018-10-03T13:33:53.832Z,71.40
2018-10-03T13:36:27.876Z,71.30
2018-10-03T13:39:02.702Z,71.30
2018-10-03T13:41:36.359Z,71.30
2018-10-03T13:44:09.916Z,71.30
2018-10-03T13:46:43.789Z,71.40
2018-10-03T13:49:17.597Z,71.50
2018-10-03T13:51:51.431Z,71.20
2018-10-03T13:54:25.378Z,71.30
2018-10-03T13:56:59.316Z,71.30
2018-10-03T13:59:33.651Z,71.30
2018-10-03T14:02:07.800Z,71.40
2018-10-03T14:04:41.702Z,71.30
2018-10-03T14:07:15.523Z,71.20
2018-10-03T14:09:49.514Z,71.30
2018-10-03T14:12:23.287Z,71.30
2018-10-03T14:14:57.371Z,71.40
2018-10-03T14:17:31.068Z,71.30
2018-10-03T14:20:04.779Z,70.60
2018-10-03T14:22:39.455Z,71.50
2018-10-03T14:25:13.337Z,71.50
2018-10-03T14:30:30.769Z,71.80
2018-10-03T14:33:05.501Z,71.80
2018-10-03T14:35:47.697Z,71.90
2018-10-03T14:38:21.691Z,71.90
2018-10-03T14:40:56.816Z,71.80
2018-10-03T14:43:30.610Z,71.70
2018-10-03T14:46:04.100Z,71.60
2018-10-03T14:48:38.027Z,71.30
2018-10-03T14:51:11.708Z,71.40
2018-10-03T14:53:50.521Z,71.10
2018-10-03T14:56:24.065Z,71.10
2018-10-03T14:58:57.989Z,70.80
2018-10-03T15:01:31.424Z,71.00
2018-10-03T15:04:05.297Z,71.00
2018-10-03T15:06:39.270Z,70.90
2018-10-03T15:09:13.902Z,70.90
2018-10-03T15:11:47.556Z,70.90
2018-10-03T15:14:21.541Z,71.00
2018-10-03T15:16:54.802Z,70.90
2018-10-03T15:19:28.906Z,71.00
2018-10-03T15:22:02.266Z,70.90
2018-10-03T15:24:35.727Z,70.90
2018-10-03T15:27:09.815Z,70.90
2018-10-03T15:29:43.637Z,71.00
2018-10-03T15:32:17.366Z,71.00
2018-10-03T15:34:51.190Z,71.00
2018-10-03T15:37:24.779Z,71.00
2018-10-03T15:39:58.206Z,71.00
2018-10-03T15:42:33.004Z,71.10
2018-10-03T15:50:01.595Z,71.50
2018-10-03T15:52:35.101Z,71.50
2018-10-03T15:55:09.010Z,71.90
2018-10-03T16:02:37.599Z,72.40
2018-10-03T16:05:11.064Z,72.50
2018-10-03T16:07:45.119Z,72.60
2018-10-03T16:15:13.732Z,72.70
2018-10-03T16:17:47.973Z,72.80
2018-10-03T16:20:22.552Z,72.90
2018-10-03T16:22:56.134Z,73.20
2018-10-03T16:25:29.602Z,73.40
2018-10-03T16:28:03.568Z,73.20
2018-10-03T16:30:37.733Z,73.20
2018-10-03T16:33:11.517Z,73.20
2018-10-03T16:35:45.430Z,73.30
2018-10-03T16:38:19.351Z,73.30
2018-10-03T16:40:53.900Z,73.20
2018-10-03T16:43:27.794Z,73.00
2018-10-03T16:46:01.860Z,72.90
2018-10-03T16:48:35.616Z,72.90
2018-10-03T16:51:09.548Z,72.90
2018-10-03T16:53:43.377Z,72.90
2018-10-03T16:56:17.297Z,72.90
2018-10-03T16:58:51.049Z,72.80
2018-10-03T17:01:24.743Z,72.80
2018-10-03T17:03:58.735Z,72.90
2018-10-03T17:06:32.650Z,72.90
2018-10-03T17:09:08.726Z,72.80
2018-10-03T17:11:43.365Z,72.90
2018-10-03T17:14:26.778Z,73.00
2018-10-03T17:17:00.692Z,72.80
2018-10-03T17:19:34.585Z,72.90
2018-10-03T17:22:09.158Z,73.00
2018-10-03T17:24:42.735Z,73.00
2018-10-03T17:27:16.364Z,73.40
2018-10-03T17:29:50.372Z,73.20
2018-10-03T17:32:24.129Z,73.20
2018-10-03T17:34:58.011Z,73.20
2018-10-03T17:37:31.632Z,73.20
2018-10-03T17:40:05.622Z,73.30
2018-10-03T17:42:39.402Z,73.20
2018-10-03T17:45:13.291Z,73.20
2018-10-03T17:47:47.232Z,73.20
2018-10-03T17:50:21.239Z,73.20
2018-10-03T17:52:55.004Z,73.30
2018-10-03T17:55:29.151Z,73.50
2018-10-03T17:58:02.881Z,73.60
2018-10-03T18:00:36.913Z,73.70
2018-10-03T18:03:11.480Z,73.70
2018-10-03T18:05:45.091Z,73.80
2018-10-03T18:08:19.090Z,73.50
2018-10-03T18:10:52.618Z,73.40
2018-10-03T18:13:26.370Z,73.30
2018-10-03T18:15:59.633Z,73.80
2018-10-03T18:18:33.337Z,73.40
2018-10-03T18:21:07.310Z,73.40
2018-10-03T18:23:42.387Z,73.50
2018-10-03T18:26:16.458Z,73.50
2018-10-03T18:28:49.985Z,73.50
2018-10-03T18:31:23.664Z,73.70
2018-10-03T18:33:57.368Z,73.80
2018-10-03T18:36:32.056Z,73.90
2018-10-03T18:39:05.820Z,73.90
2018-10-03T18:41:43.703Z,74.00
2018-10-03T18:44:17.730Z,74.00
2018-10-03T18:46:51.699Z,74.00
2018-10-03T18:49:25.446Z,74.10
2018-10-03T18:51:59.088Z,74.20
2018-10-03T18:54:32.672Z,75.30
2018-10-03T18:57:06.344Z,74.30
2018-10-03T18:59:40.419Z,74.30
2018-10-03T19:02:14.112Z,74.40
2018-10-03T19:04:47.969Z,74.50
2018-10-03T19:07:22.007Z,74.60
2018-10-03T19:09:55.746Z,74.50
2018-10-03T19:12:29.250Z,74.50
2018-10-03T19:15:03.334Z,74.60
2018-10-03T19:17:37.005Z,74.70
2018-10-03T19:20:10.772Z,74.70
2018-10-03T19:22:44.969Z,74.70
2018-10-03T19:25:20.180Z,74.70
2018-10-03T19:27:54.269Z,74.70
2018-10-03T19:30:28.357Z,75.40
2018-10-03T19:33:01.877Z,75.20
2018-10-03T19:35:35.694Z,74.60
2018-10-03T19:38:09.551Z,74.80
2018-10-03T19:40:43.242Z,74.80
2018-10-03T19:43:16.990Z,74.80
2018-10-03T19:45:50.645Z,74.80
2018-10-03T19:48:24.690Z,74.80
2018-10-03T19:50:58.413Z,74.80
2018-10-03T19:53:37.398Z,75.00
2018-10-03T19:56:11.031Z,74.90
2018-10-03T19:58:44.776Z,74.80
2018-10-03T20:01:18.903Z,74.80
2018-10-03T20:03:52.388Z,74.80
2018-10-03T20:06:26.976Z,74.80
2018-10-03T20:09:00.780Z,74.70
2018-10-03T20:11:34.439Z,74.70
2018-10-03T20:14:08.347Z,74.70
2018-10-03T20:16:41.916Z,74.80
2018-10-03T20:19:15.483Z,74.80
2018-10-03T20:21:52.256Z,74.90
2018-10-03T20:24:26.515Z,74.90
2018-10-03T20:27:01.272Z,75.00
2018-10-03T20:29:35.062Z,75.00
2018-10-03T20:32:10.893Z,75.10
2018-10-03T20:34:44.457Z,75.20
2018-10-03T20:37:18.793Z,75.20
2018-10-03T20:39:53.058Z,75.20
2018-10-03T20:42:26.794Z,75.20
2018-10-03T20:45:00.615Z,75.20
2018-10-03T20:47:34.809Z,75.20
2018-10-03T20:50:08.444Z,75.20
2018-10-03T20:52:42.345Z,75.20
2018-10-03T20:55:16.004Z,75.20
2018-10-03T20:57:49.502Z,75.20
2018-10-03T21:00:23.072Z,75.70
2018-10-03T21:02:56.654Z,75.50
2018-10-03T21:05:30.857Z,75.50
2018-10-03T21:08:04.683Z,76.40
2018-10-03T21:10:38.558Z,75.60
2018-10-03T21:13:12.461Z,75.60
2018-10-03T21:15:46.196Z,75.50
2018-10-03T21:20:59.015Z,75.70
2018-10-03T21:23:32.882Z,75.70
2018-10-03T21:26:06.650Z,75.90
2018-10-03T21:28:41.837Z,75.60
2018-10-03T21:31:15.778Z,75.70
2018-10-03T21:33:49.647Z,75.80
2018-10-03T21:36:22.939Z,75.90
2018-10-03T21:38:56.680Z,76.00
2018-10-03T21:41:30.328Z,76.00
2018-10-03T21:44:04.518Z,76.00
2018-10-03T21:46:38.245Z,76.00
2018-10-03T21:49:12.644Z,76.00
2018-10-03T21:51:46.379Z,76.00
2018-10-03T21:54:20.157Z,75.80
2018-10-03T21:56:54.186Z,75.90
2018-10-03T21:59:27.870Z,75.90
2018-10-03T22:02:01.651Z,76.00
2018-10-03T22:04:35.478Z,75.90
2018-10-03T22:07:09.101Z,76.00
2018-10-03T22:09:42.860Z,76.10
2018-10-03T22:12:16.551Z,76.20
2018-10-03T22:14:50.525Z,76.10
2018-10-03T22:17:27.201Z,76.20
2018-10-03T22:20:01.083Z,76.20
2018-10-03T22:22:34.938Z,76.30
2018-10-03T22:25:08.704Z,76.40
2018-10-03T22:27:42.242Z,76.50
2018-10-03T22:30:18.097Z,76.70
2018-10-03T22:32:52.294Z,76.70
2018-10-03T22:35:26.265Z,76.10
2018-10-03T22:38:00.170Z,76.90
2018-10-03T22:40:34.243Z,77.00
2018-10-03T22:43:07.979Z,77.20
2018-10-03T22:45:41.612Z,77.10
2018-10-03T22:48:15.520Z,77.20
2018-10-03T22:50:49.277Z,77.20
2018-10-03T22:53:27.508Z,77.20
2018-10-03T22:56:01.319Z,77.20
2018-10-03T22:58:35.119Z,77.20
2018-10-03T23:01:08.857Z,77.30
2018-10-03T23:03:42.983Z,77.40
2018-10-03T23:06:16.631Z,77.10
2018-10-03T23:08:50.672Z,77.20
2018-10-03T23:11:25.002Z,77.20
2018-10-03T23:13:58.969Z,77.10
2018-10-03T23:16:33.195Z,77.10
2018-10-03T23:19:07.065Z,77.10
2018-10-03T23:21:40.882Z,77.10
2018-10-03T23:24:14.311Z,77.10
2018-10-03T23:26:48.039Z,77.10
2018-10-03T23:29:21.781Z,77.10
2018-10-03T23:31:57.281Z,77.20
2018-10-03T23:34:31.062Z,77.30
2018-10-03T23:37:05.051Z,77.30
2018-10-03T23:39:38.541Z,77.80
2018-10-03T23:42:14.170Z,77.40
2018-10-03T23:44:48.228Z,77.50
2018-10-03T23:47:25.002Z,77.50
2018-10-03T23:49:58.893Z,77.50
2018-10-03T23:52:32.684Z,77.60
2018-10-03T23:55:06.775Z,76.50
2018-10-03T23:57:40.284Z,77.00
